Time;durP1;ratioP1;P1;durP2;ratioP2;P2;SDS_P1;SDS_P2;PMS_P1;PMS_P2;Temp;Humidity;BMP_temperature;BMP_pressure;BME280_temperature;BME280_humidity;BME280_pressure;Samples;Min_cycle;Max_cycle;Signal;HPM_P1;HPM_P2
2021/12/12 00:02:08;;;;;;;3.78;2.40;;;;;;;15.64;41.07;93797.13;4979603;28;20625;-84
2021/12/12 00:04:36;;;;;;;3.65;2.17;;;;;;;15.60;40.97;93789.16;4976839;28;20095;-84
2021/12/12 00:07:08;;;;;;;6.13;3.22;;;;;;;15.63;41.07;93801.06;5006583;28;20168;-85
2021/12/12 00:09:38;;;;;;;3.13;2.30;;;;;;;15.58;41.10;93799.81;5016916;28;20090;-84
2021/12/12 00:12:09;;;;;;;4.25;2.30;;;;;;;15.62;41.25;93794.13;4986988;28;20044;-84
2021/12/12 00:14:35;;;;;;;3.20;2.22;;;;;;;15.62;40.73;93799.56;4971384;28;20061;-86
2021/12/12 00:17:00;;;;;;;3.08;2.53;;;;;;;15.57;41.20;93798.31;4987585;28;20046;-85
2021/12/12 00:19:27;;;;;;;2.72;2.30;;;;;;;15.55;41.04;93786.38;4970897;28;20452;-84
2021/12/12 00:21:55;;;;;;;3.22;2.30;;;;;;;15.56;41.19;93794.09;4967660;28;20031;-87
2021/12/12 00:24:20;;;;;;;3.85;2.33;;;;;;;15.61;41.22;93801.53;5029769;28;20030;-86
2021/12/12 00:26:47;;;;;;;2.45;2.05;;;;;;;15.63;41.04;93801.06;4990678;28;20046;-85
2021/12/12 00:29:13;;;;;;;3.92;2.47;;;;;;;15.63;41.11;93787.44;4990569;28;20033;-85
2021/12/12 00:31:38;;;;;;;2.53;1.88;;;;;;;15.54;41.07;93799.25;5007175;28;20041;-85
2021/12/12 00:34:04;;;;;;;3.38;2.38;;;;;;;15.58;40.84;93802.53;4997100;28;20041;-84
2021/12/12 00:36:32;;;;;;;3.30;2.63;;;;;;;15.57;41.09;93801.03;4971552;28;20030;-84
2021/12/12 00:38:59;;;;;;;2.90;1.77;;;;;;;15.58;40.96;93801.78;4955682;28;20037;-84
2021/12/12 00:41:39;;;;;;;3.25;2.60;;;;;;;15.59;41.15;93795.84;4998351;28;20038;-87
2021/12/12 00:44:04;;;;;;;2.88;2.05;;;;;;;15.57;41.13;93792.88;5006341;28;20048;-84
2021/12/12 00:46:30;;;;;;;5.13;2.63;;;;;;;15.54;41.31;93793.06;4995173;28;20043;-84
2021/12/12 00:48:55;;;;;;;3.40;2.28;;;;;;;15.61;41.07;93796.09;5004099;28;20496;-84
2021/12/12 00:51:26;;;;;;;2.97;2.42;;;;;;;15.62;41.10;93802.28;4987070;28;20050;-85
2021/12/12 00:53:51;;;;;;;4.18;2.85;;;;;;;15.61;41.03;93806.25;4987442;28;20072;-85
2021/12/12 00:56:18;;;;;;;2.95;2.20;;;;;;;15.56;41.52;93798.78;4986922;28;20038;-84
2021/12/12 00:58:43;;;;;;;3.85;2.60;;;;;;;15.56;41.40;93788.66;4970475;28;20030;-84
2021/12/12 01:01:12;;;;;;;3.45;2.30;;;;;;;15.61;41.09;93795.34;5002436;28;20535;-85
2021/12/12 01:03:41;;;;;;;3.80;2.47;;;;;;;15.53;41.26;93795.03;4968232;28;20046;-84
2021/12/12 01:06:07;;;;;;;2.58;2.20;;;;;;;15.58;41.14;93807.25;4983539;28;20122;-87
2021/12/12 01:08:33;;;;;;;2.53;2.30;;;;;;;15.57;41.17;93809.22;4967560;28;20121;-84
2021/12/12 01:11:11;;;;;;;4.60;2.50;;;;;;;15.54;41.25;93812.13;4997076;28;20117;-85
2021/12/12 01:13:36;;;;;;;2.10;1.90;;;;;;;15.55;41.15;93813.63;5009257;28;20196;-84
2021/12/12 01:16:09;;;;;;;3.38;2.38;;;;;;;15.58;41.06;93818.88;4993838;28;20640;-85
2021/12/12 01:18:40;;;;;;;2.72;2.20;;;;;;;15.61;41.02;93826.06;5002932;28;20524;-84
2021/12/12 01:21:13;;;;;;;3.28;2.47;;;;;;;15.61;40.94;93831.53;4986202;28;20088;-84
2021/12/12 01:23:43;;;;;;;3.63;2.70;;;;;;;15.57;40.98;93825.56;4986368;28;20090;-84
2021/12/12 01:26:09;;;;;;;2.65;2.10;;;;;;;15.57;41.11;93822.84;4954599;28;20062;-84
2021/12/12 01:28:36;;;;;;;3.28;2.80;;;;;;;15.58;41.26;93818.88;4970705;28;20057;-85
2021/12/12 01:31:04;;;;;;;2.50;2.25;;;;;;;15.54;41.24;93812.88;4970146;28;20050;-85
2021/12/12 01:33:34;;;;;;;2.88;2.10;;;;;;;15.57;40.94;93822.09;4986443;28;20122;-88
2021/12/12 01:36:06;;;;;;;2.67;2.35;;;;;;;15.59;41.21;93830.53;4971804;28;20038;-84
2021/12/12 01:41:17;;;;;;;2.20;2.00;;;;;;;15.56;40.88;93836.94;5000544;28;20392;-85
2021/12/12 01:43:45;;;;;;;2.60;2.15;;;;;;;15.56;41.06;93831.50;5010023;28;20503;-85
2021/12/12 01:46:21;;;;;;;2.20;1.77;;;;;;;15.59;41.17;93827.81;5003431;28;20565;-84
2021/12/12 01:48:50;;;;;;;4.35;2.10;;;;;;;15.59;41.05;93835.97;4990602;28;20084;-84
2021/12/12 01:51:16;;;;;;;3.05;2.33;;;;;;;15.57;40.99;93838.44;5006181;28;20066;-84
2021/12/12 01:53:44;;;;;;;3.72;2.28;;;;;;;15.55;40.90;93847.06;4990481;28;20074;-84
2021/12/12 01:56:19;;;;;;;2.55;1.90;;;;;;;15.55;41.14;93829.97;4989897;28;20045;-84
2021/12/12 01:58:46;;;;;;;2.20;1.90;;;;;;;15.58;41.22;93837.97;4973464;28;20027;-86
2021/12/12 02:01:20;;;;;;;2.60;2.22;;;;;;;15.59;40.85;93842.16;4989409;28;20042;-85
2021/12/12 02:03:52;;;;;;;3.85;2.17;;;;;;;15.57;40.85;93849.34;4958272;28;20504;-88
2021/12/12 02:06:20;;;;;;;2.80;2.38;;;;;;;15.59;41.19;93844.16;4974014;28;20069;-87
2021/12/12 02:08:47;;;;;;;3.85;2.50;;;;;;;15.59;40.89;93842.16;4986018;28;20469;-87
2021/12/12 02:11:16;;;;;;;2.95;2.20;;;;;;;15.60;40.92;93843.66;4987437;28;20108;-85
2021/12/12 02:13:45;;;;;;;2.92;2.45;;;;;;;15.61;40.85;93833.50;4971474;28;20098;-85
2021/12/12 02:16:11;;;;;;;3.00;2.40;;;;;;;15.62;40.87;93840.44;4991932;28;20046;-86
2021/12/12 02:18:39;;;;;;;2.45;2.13;;;;;;;15.62;41.22;93832.28;4974649;28;20047;-84
2021/12/12 02:21:22;;;;;;;2.80;2.38;;;;;;;15.58;41.40;93832.50;4957470;28;20194;-85
2021/12/12 02:37:30;;;;;;;3.78;2.40;;;;;;;15.52;40.96;93830.94;4975512;28;20038;-83
2021/12/12 02:39:55;;;;;;;3.97;2.47;;;;;;;15.57;41.14;93819.38;4990688;28;20026;-84
2021/12/12 02:42:22;;;;;;;3.10;2.35;;;;;;;15.60;40.98;93823.81;4991570;28;20046;-84
2021/12/12 02:44:49;;;;;;;2.85;2.00;;;;;;;15.52;41.17;93820.78;5009424;28;20312;-86
2021/12/12 02:47:18;;;;;;;3.20;2.10;;;;;;;15.55;40.92;93822.53;4998122;28;20034;-89
2021/12/12 02:52:18;;;;;;;2.83;2.03;;;;;;;15.56;41.07;93834.22;4988995;28;20049;-85
2021/12/12 02:54:44;;;;;;;2.88;2.28;;;;;;;15.57;40.94;93830.25;4973423;28;20061;-84
2021/12/12 02:57:09;;;;;;;3.10;2.22;;;;;;;15.56;40.88;93834.97;4988558;28;20034;-85
2021/12/12 02:59:36;;;;;;;2.78;1.98;;;;;;;15.58;40.70;93834.50;5004151;28;20038;-84
2021/12/12 03:02:14;;;;;;;3.05;2.70;;;;;;;15.56;40.93;93831.50;4963869;28;20092;-85
2021/12/12 03:04:39;;;;;;;3.25;2.45;;;;;;;15.54;41.01;93821.03;4979532;28;20088;-84
2021/12/12 03:07:06;;;;;;;2.40;2.05;;;;;;;15.56;41.05;93828.78;4988680;28;20034;-84
2021/12/12 03:09:38;;;;;;;3.13;2.20;;;;;;;15.63;41.07;93829.06;4972860;28;20041;-84
2021/12/12 03:12:07;;;;;;;3.42;2.47;;;;;;;15.63;40.66;93834.50;4987928;28;20520;-84
2021/12/12 03:14:33;;;;;;;2.78;2.35;;;;;;;15.62;41.02;93829.53;5005749;28;20046;-84
2021/12/12 03:17:02;;;;;;;2.67;1.95;;;;;;;15.59;40.96;93839.44;4989083;28;20042;-84
2021/12/12 03:19:28;;;;;;;4.32;2.75;;;;;;;15.57;40.79;93847.38;4971875;28;20379;-84
2021/12/12 03:21:53;;;;;;;3.45;2.80;;;;;;;15.54;40.99;93837.41;4956299;28;20038;-84
2021/12/12 03:24:21;;;;;;;3.13;2.50;;;;;;;15.56;40.74;93850.56;4968718;28;20165;-88
2021/12/12 03:26:49;;;;;;;3.80;2.60;;;;;;;15.57;40.83;93849.34;4985436;28;20130;-84
2021/12/12 03:29:14;;;;;;;2.65;2.22;;;;;;;15.51;41.19;93851.97;5000638;28;20485;-84
2021/12/12 03:31:43;;;;;;;3.25;2.50;;;;;;;15.53;41.09;93844.06;4985371;28;20038;-84
2021/12/12 03:34:12;;;;;;;3.05;2.30;;;;;;;15.57;40.83;93854.78;4964934;28;20131;-84
2021/12/12 03:36:37;;;;;;;3.58;2.50;;;;;;;15.58;41.00;93842.66;4949773;28;20043;-84
2021/12/12 03:39:07;;;;;;;3.45;2.63;;;;;;;15.55;40.87;93838.16;4950966;28;20035;-84
2021/12/12 03:41:33;;;;;;;3.47;2.40;;;;;;;15.63;40.86;93845.41;4951539;28;20545;-84
2021/12/12 03:44:00;;;;;;;2.28;2.03;;;;;;;15.57;40.86;93847.38;4959760;28;20756;-84
2021/12/12 03:46:26;;;;;;;3.22;2.60;;;;;;;15.57;41.03;93841.91;4951000;28;20545;-84
2021/12/12 03:48:51;;;;;;;3.20;2.72;;;;;;;15.59;40.97;93852.34;4983364;28;20034;-86
2021/12/12 03:51:18;;;;;;;3.33;2.20;;;;;;;15.61;41.02;93850.59;4934713;28;20046;-85
2021/12/12 03:53:43;;;;;;;3.10;2.60;;;;;;;15.59;40.93;93850.31;4951482;28;20043;-84
2021/12/12 03:56:10;;;;;;;3.00;2.30;;;;;;;15.60;40.74;93848.34;4950309;28;20043;-84
2021/12/12 03:58:35;;;;;;;2.90;2.58;;;;;;;15.57;40.70;93844.63;4950525;28;20502;-84
2021/12/12 04:01:05;;;;;;;3.75;2.47;;;;;;;15.57;40.84;93846.63;4983156;28;20034;-84
2021/12/12 04:03:30;;;;;;;2.97;2.30;;;;;;;15.52;41.07;93839.84;4985555;28;20054;-87
2021/12/12 04:05:59;;;;;;;3.88;2.65;;;;;;;15.55;40.91;93855.25;4975125;28;20512;-89
2021/12/12 04:08:26;;;;;;;2.75;2.50;;;;;;;15.60;40.91;93853.81;5006897;28;20056;-84
2021/12/12 04:10:52;;;;;;;4.03;2.42;;;;;;;15.57;40.82;93857.50;5021885;28;20485;-87
2021/12/12 04:13:17;;;;;;;3.25;2.47;;;;;;;15.54;41.02;93861.16;4987406;28;20042;-84
2021/12/12 04:15:43;;;;;;;2.85;2.15;;;;;;;15.54;40.67;93869.34;4971496;28;20034;-85
2021/12/12 04:18:08;;;;;;;5.95;2.40;;;;;;;15.59;40.85;93880.31;4971437;28;20035;-84
2021/12/12 04:20:37;;;;;;;3.70;2.65;;;;;;;15.57;40.60;93882.78;4971873;28;20030;-84
2021/12/12 04:23:04;;;;;;;3.67;2.85;;;;;;;15.55;40.94;93874.31;4972591;28;20535;-85
2021/12/12 04:25:29;;;;;;;4.22;2.70;;;;;;;15.54;40.78;93886.44;4971606;28;20445;-84
2021/12/12 04:27:54;;;;;;;4.10;2.75;;;;;;;15.55;40.88;93884.47;4971734;28;20126;-84
2021/12/12 04:30:23;;;;;;;3.22;2.47;;;;;;;15.59;40.76;93898.66;4970825;28;20035;-85
2021/12/12 04:32:49;;;;;;;3.05;2.17;;;;;;;15.54;40.77;93885.69;4987600;28;20262;-85
2021/12/12 04:35:17;;;;;;;3.35;2.55;;;;;;;15.56;40.80;93884.00;5002617;28;20085;-84
2021/12/12 04:37:44;;;;;;;2.63;2.30;;;;;;;15.55;40.92;93884.47;4971381;28;20034;-85
2021/12/12 04:40:11;;;;;;;3.05;2.47;;;;;;;15.54;40.81;93894.63;4970859;28;20122;-84
2021/12/12 04:42:38;;;;;;;3.63;2.58;;;;;;;15.52;40.85;93893.59;4972048;28;20034;-84
2021/12/12 04:45:09;;;;;;;3.75;2.60;;;;;;;15.52;40.88;93897.06;4970706;28;20046;-85
2021/12/12 04:50:25;;;;;;;2.63;2.30;;;;;;;15.57;40.67;93899.13;4973894;28;20405;-84
2021/12/12 04:53:00;;;;;;;3.80;2.58;;;;;;;15.56;40.79;93903.09;4987542;28;20508;-85
2021/12/12 04:55:37;;;;;;;3.40;2.70;;;;;;;15.56;40.96;93903.09;4986361;28;20107;-84
2021/12/12 04:58:09;;;;;;;3.50;2.65;;;;;;;15.60;40.98;93905.56;4970536;28;20090;-84
2021/12/12 05:00:40;;;;;;;4.70;3.08;;;;;;;15.55;40.94;93909.00;4986588;28;20038;-84
2021/12/12 05:03:23;;;;;;;2.97;2.50;;;;;;;15.53;40.85;93906.75;5002691;28;20567;-84
2021/12/12 05:05:58;;;;;;;3.22;2.40;;;;;;;15.59;40.81;93912.28;5006333;28;20038;-84
2021/12/12 05:08:33;;;;;;;3.20;2.25;;;;;;;15.54;41.12;93913.69;5007281;28;20088;-87
2021/12/12 05:11:03;;;;;;;3.35;2.67;;;;;;;15.56;40.75;93913.25;4991552;28;20035;-84
2021/12/12 05:13:35;;;;;;;3.20;2.83;;;;;;;15.57;40.65;93912.75;4988489;28;20050;-85
2021/12/12 05:16:08;;;;;;;3.42;2.63;;;;;;;15.53;40.85;93931.25;4988192;28;20031;-84
2021/12/12 05:18:39;;;;;;;2.60;2.28;;;;;;;15.53;40.94;93925.06;4970678;28;20501;-85
2021/12/12 05:21:09;;;;;;;3.70;2.90;;;;;;;15.53;40.83;93931.25;4986028;28;20043;-85
2021/12/12 05:23:35;;;;;;;3.30;2.40;;;;;;;15.60;41.06;93933.56;4963544;28;20032;-85
2021/12/12 05:26:04;;;;;;;3.72;2.88;;;;;;;15.56;40.93;93933.06;4990818;28;20105;-84
2021/12/12 05:28:37;;;;;;;3.00;2.70;;;;;;;15.50;41.03;93940.41;4990244;28;20085;-84
2021/12/12 05:31:04;;;;;;;4.47;2.90;;;;;;;15.54;40.82;93934.75;4990995;28;20034;-84
2021/12/12 05:33:30;;;;;;;4.15;2.80;;;;;;;15.54;41.05;93938.22;4991016;28;20066;-84
2021/12/12 05:35:55;;;;;;;4.22;2.53;;;;;;;15.56;40.88;93941.25;4990151;28;20066;-84
2021/12/12 05:38:22;;;;;;;4.30;2.90;;;;;;;15.55;40.94;93941.69;4957947;28;20109;-84
2021/12/12 05:40:48;;;;;;;5.22;2.85;;;;;;;15.55;40.87;93939.72;4980727;28;20030;-84
2021/12/12 05:43:14;;;;;;;3.08;2.38;;;;;;;15.51;40.84;93950.06;5009784;28;20041;-84
2021/12/12 05:45:39;;;;;;;3.30;2.50;;;;;;;15.46;41.36;93947.28;5010197;28;20041;-84
2021/12/12 05:48:05;;;;;;;3.53;2.65;;;;;;;15.51;41.30;93962.94;5003807;28;20043;-84
2021/12/12 05:50:31;;;;;;;4.10;2.67;;;;;;;15.49;41.09;93963.41;4990998;28;20042;-84
2021/12/12 05:52:56;;;;;;;2.88;2.38;;;;;;;15.51;40.96;93952.03;4974096;28;20038;-84
2021/12/12 05:55:24;;;;;;;3.00;2.50;;;;;;;15.54;40.92;93953.81;4990118;28;20050;-84
2021/12/12 05:57:56;;;;;;;4.05;2.97;;;;;;;15.57;41.03;93950.16;4973853;28;20061;-84
2021/12/12 06:00:27;;;;;;;2.92;2.58;;;;;;;15.57;40.79;93955.63;4991006;28;20077;-89
2021/12/12 06:02:54;;;;;;;4.15;3.40;;;;;;;15.56;40.74;93959.56;4990108;28;20098;-88
2021/12/12 06:05:19;;;;;;;3.47;2.90;;;;;;;15.59;40.68;93958.59;4972558;28;20030;-85
2021/12/12 06:07:45;;;;;;;4.03;3.00;;;;;;;15.60;40.62;93960.09;4956346;28;20432;-87
2021/12/12 06:10:12;;;;;;;3.42;2.58;;;;;;;15.58;40.83;93957.84;4972562;28;20385;-84
2021/12/12 06:12:37;;;;;;;2.80;2.35;;;;;;;15.62;40.88;93958.38;4973195;28;20046;-84
2021/12/12 06:15:07;;;;;;;4.32;2.75;;;;;;;15.59;40.74;93956.59;4974610;28;20485;-84
2021/12/12 06:17:32;;;;;;;4.18;3.40;;;;;;;15.60;40.71;93965.53;4969103;28;20035;-85
2021/12/12 06:19:59;;;;;;;3.90;3.00;;;;;;;15.61;40.58;93964.31;5004736;28;20026;-85
2021/12/12 06:22:24;;;;;;;4.35;3.10;;;;;;;15.55;41.13;93972.41;4988581;28;20039;-87
2021/12/12 06:24:51;;;;;;;3.40;2.70;;;;;;;15.56;40.67;93973.94;5005560;28;20110;-84
2021/12/12 06:27:17;;;;;;;4.97;3.53;;;;;;;15.52;40.95;93975.34;4956970;28;20133;-84
2021/12/12 06:29:45;;;;;;;4.57;3.22;;;;;;;15.54;40.88;93970.16;4957190;28;20041;-84
2021/12/12 06:32:10;;;;;;;3.22;2.42;;;;;;;15.53;40.75;93980.31;4957362;28;20489;-84
2021/12/12 06:34:36;;;;;;;3.70;2.85;;;;;;;15.55;40.88;93977.84;4973476;28;20039;-84
2021/12/12 06:37:01;;;;;;;3.60;2.80;;;;;;;15.58;40.91;93968.00;4973139;28;20034;-85
2021/12/12 06:39:27;;;;;;;3.55;2.80;;;;;;;15.52;40.87;93975.34;4972791;28;20042;-85
2021/12/12 06:41:52;;;;;;;3.40;3.00;;;;;;;15.54;40.85;93979.09;4988741;28;20030;-84
2021/12/12 06:44:18;;;;;;;3.92;3.33;;;;;;;15.56;40.87;93984.09;5025520;28;20034;-84
2021/12/12 06:46:43;;;;;;;3.78;2.53;;;;;;;15.60;40.69;93982.63;5009336;28;20037;-85
2021/12/12 06:49:11;;;;;;;3.55;2.83;;;;;;;15.61;40.78;93981.41;5013311;28;20390;-84
2021/12/12 06:51:40;;;;;;;4.03;3.00;;;;;;;15.59;40.85;93985.84;4989380;28;20494;-84
2021/12/12 06:54:06;;;;;;;3.10;2.58;;;;;;;15.53;40.78;93974.84;4972637;28;20109;-84
2021/12/12 06:56:32;;;;;;;4.38;3.10;;;;;;;15.50;40.82;93981.25;5005680;28;20046;-84
2021/12/12 06:58:58;;;;;;;3.28;2.70;;;;;;;15.55;41.20;93990.72;4989514;28;20031;-85
2021/12/12 07:01:24;;;;;;;5.10;3.47;;;;;;;15.55;40.66;93988.75;4971733;28;20042;-84
2021/12/12 07:03:51;;;;;;;3.47;2.88;;;;;;;15.57;41.02;93988.31;4956494;28;20042;-84
2021/12/12 07:06:18;;;;;;;3.25;2.90;;;;;;;15.47;40.92;93998.56;4972632;28;20202;-84
2021/12/12 07:08:44;;;;;;;4.55;3.10;;;;;;;15.57;40.62;93999.22;4957403;28;20489;-87
2021/12/12 07:11:09;;;;;;;5.30;3.50;;;;;;;15.52;40.87;94013.47;4988727;28;20271;-84
2021/12/12 07:13:35;;;;;;;3.72;3.22;;;;;;;15.56;40.81;94014.81;4977682;28;20033;-84
2021/12/12 07:16:01;;;;;;;3.47;2.78;;;;;;;15.55;40.93;94009.81;5008658;28;20238;-84
2021/12/12 07:18:29;;;;;;;5.18;3.17;;;;;;;15.55;40.94;94016.00;4988149;28;20073;-84
2021/12/12 07:20:58;;;;;;;3.67;2.90;;;;;;;15.54;40.78;94014.50;4972724;28;20498;-84
2021/12/12 07:23:24;;;;;;;4.05;3.28;;;;;;;15.52;40.99;94019.69;4988019;28;20038;-84
2021/12/12 07:25:49;;;;;;;2.95;2.63;;;;;;;15.56;40.87;94023.00;4955946;28;20486;-84
2021/12/12 07:28:15;;;;;;;4.13;3.15;;;;;;;15.59;40.91;94019.28;4988190;28;20430;-84
2021/12/12 07:30:40;;;;;;;3.03;2.58;;;;;;;15.59;40.49;94019.28;4973017;28;20045;-86
2021/12/12 07:33:06;;;;;;;3.95;2.80;;;;;;;15.52;40.69;94019.69;4971871;28;20402;-88
2021/12/12 07:35:33;;;;;;;3.83;3.13;;;;;;;15.54;40.74;94041.00;4971783;28;20513;-84
2021/12/12 07:37:58;;;;;;;3.33;2.85;;;;;;;15.59;40.95;94032.19;4968240;28;20039;-84
2021/12/12 07:40:24;;;;;;;4.57;3.20;;;;;;;15.58;40.66;94026.00;5007770;28;20045;-84
2021/12/12 07:42:49;;;;;;;4.45;3.22;;;;;;;15.61;40.88;94021.53;5008154;28;20346;-84
2021/12/12 07:45:15;;;;;;;4.63;3.50;;;;;;;15.60;40.64;94025.47;4990631;28;20065;-84
2021/12/12 07:47:40;;;;;;;3.95;3.38;;;;;;;15.55;40.64;94034.34;4991625;28;20045;-84
2021/12/12 07:50:07;;;;;;;3.80;3.13;;;;;;;15.57;40.25;94035.38;4992953;28;20034;-84
2021/12/12 07:52:34;;;;;;;4.07;3.40;;;;;;;15.58;40.78;94039.59;4972159;28;20046;-84
2021/12/12 07:55:00;;;;;;;3.92;2.90;;;;;;;15.55;40.83;94035.09;4988367;28;20038;-88
2021/12/12 07:57:29;;;;;;;4.30;3.30;;;;;;;15.61;40.55;94041.34;4971484;28;20038;-84
2021/12/12 07:59:54;;;;;;;4.45;3.30;;;;;;;15.57;40.66;94042.81;4956890;28;20366;-84
2021/12/12 08:02:20;;;;;;;4.35;3.28;;;;;;;15.56;40.87;94049.50;4996312;28;20045;-85
2021/12/12 08:04:45;;;;;;;3.88;3.30;;;;;;;15.56;40.88;94042.06;5008233;28;20314;-86
2021/12/12 08:07:13;;;;;;;4.20;3.13;;;;;;;15.52;41.07;94038.00;5008648;28;20153;-84
2021/12/12 08:09:42;;;;;;;5.05;3.35;;;;;;;15.55;40.80;94054.16;5024077;28;20193;-84
2021/12/12 08:12:10;;;;;;;3.30;2.85;;;;;;;15.55;40.80;94053.41;5007261;28;20033;-87
2021/12/12 08:14:35;;;;;;;4.32;3.10;;;;;;;15.55;40.34;94051.44;4991821;28;20092;-84
2021/12/12 08:17:01;;;;;;;5.18;3.88;;;;;;;15.55;40.58;94056.88;4952356;28;20038;-85
2021/12/12 08:19:27;;;;;;;3.92;2.72;;;;;;;15.63;40.51;94068.13;5000324;28;20117;-84
2021/12/12 08:21:54;;;;;;;4.28;3.25;;;;;;;15.60;40.85;94064.38;5001401;28;20034;-84
2021/12/12 08:24:20;;;;;;;3.42;3.00;;;;;;;15.58;40.72;94061.41;5018474;28;20034;-85
2021/12/12 08:26:45;;;;;;;3.45;2.88;;;;;;;15.59;40.90;94054.00;4989469;28;20454;-87
2021/12/12 08:29:12;;;;;;;4.47;3.10;;;;;;;15.59;40.89;94054.72;4970565;28;20057;-84
2021/12/12 08:31:37;;;;;;;3.60;2.85;;;;;;;15.54;40.84;94058.09;4988072;28;20069;-87
2021/12/12 08:34:04;;;;;;;3.55;3.20;;;;;;;15.54;41.14;94057.34;5003101;28;20489;-84
2021/12/12 08:36:30;;;;;;;3.85;2.80;;;;;;;15.56;40.77;94055.69;4955811;28;20041;-84
2021/12/12 08:38:55;;;;;;;4.15;3.25;;;;;;;15.56;40.49;94060.38;4955022;28;20034;-84
2021/12/12 08:41:21;;;;;;;4.47;3.00;;;;;;;15.60;40.74;94064.38;4986727;28;20031;-84
2021/12/12 08:43:46;;;;;;;4.15;3.17;;;;;;;15.59;40.93;94051.97;4954995;28;20097;-84
2021/12/12 08:46:13;;;;;;;3.33;2.75;;;;;;;15.59;40.64;94060.16;4970879;28;20401;-85
2021/12/12 08:48:41;;;;;;;3.65;3.22;;;;;;;15.57;40.76;94053.72;4955163;28;20054;-84
2021/12/12 08:51:18;;;;;;;4.53;3.15;;;;;;;15.58;40.49;94063.38;4982990;28;20038;-85
2021/12/12 08:53:46;;;;;;;4.18;2.90;;;;;;;15.53;40.80;94058.59;4983028;28;20054;-88
2021/12/12 08:56:19;;;;;;;3.60;2.75;;;;;;;15.59;40.69;94067.63;4999544;28;20053;-84
2021/12/12 08:58:45;;;;;;;3.95;2.92;;;;;;;15.56;40.52;94065.84;4998682;28;20045;-84
2021/12/12 09:01:12;;;;;;;5.55;2.97;;;;;;;15.61;40.64;94079.50;4984740;28;20051;-84
2021/12/12 09:03:41;;;;;;;3.20;2.42;;;;;;;15.60;40.75;94063.63;5007084;28;20050;-85
2021/12/12 09:06:07;;;;;;;3.83;3.00;;;;;;;15.62;40.56;94072.09;5007014;28;20512;-84
2021/12/12 09:08:54;;;;;;;3.20;2.53;;;;;;;15.60;40.62;94078.00;4990095;28;20401;-83
2021/12/12 09:11:19;;;;;;;4.72;3.00;;;;;;;15.57;40.72;94072.78;4988130;28;20508;-87
2021/12/12 09:13:52;;;;;;;3.83;2.47;;;;;;;15.56;40.74;94066.59;4986250;28;20042;-84
2021/12/12 09:16:32;;;;;;;4.45;2.90;;;;;;;15.61;40.68;94073.31;4970951;28;20409;-84
2021/12/12 09:19:05;;;;;;;4.03;2.77;;;;;;;15.60;40.96;94064.38;4967248;28;20047;-84
2021/12/12 09:21:48;;;;;;;4.00;3.08;;;;;;;15.63;40.87;94071.63;4967459;28;20431;-84
2021/12/12 09:24:21;;;;;;;3.95;2.70;;;;;;;15.60;40.83;94080.75;4999286;28;20038;-84
2021/12/12 09:26:49;;;;;;;4.00;3.15;;;;;;;15.62;40.74;94075.56;4975960;28;20541;-84
2021/12/12 09:29:23;;;;;;;4.43;3.35;;;;;;;15.59;40.79;94092.88;5002308;28;20039;-84
2021/12/12 09:32:06;;;;;;;4.43;3.17;;;;;;;15.57;40.78;94092.63;5002573;28;20057;-86
2021/12/12 09:34:52;;;;;;;3.70;3.00;;;;;;;15.63;40.69;94090.69;4971769;28;20068;-84
2021/12/12 09:37:21;;;;;;;4.47;3.53;;;;;;;15.61;40.57;94081.50;4986250;28;20038;-84
2021/12/12 09:39:56;;;;;;;4.55;2.92;;;;;;;15.59;41.08;94084.69;4970410;28;20126;-84
2021/12/12 09:42:59;;;;;;;3.45;2.67;;;;;;;15.60;40.57;94094.38;4990365;28;20054;-85
2021/12/12 09:45:35;;;;;;;4.40;3.20;;;;;;;15.58;40.88;94091.38;5007407;28;20097;-84
2021/12/12 09:51:38;;;;;;;3.83;2.75;;;;;;;15.58;40.73;94099.56;4988860;28;20050;-85
2021/12/12 09:54:19;;;;;;;4.40;3.15;;;;;;;15.60;40.69;94088.91;4971367;28;20101;-84
2021/12/12 09:57:00;;;;;;;4.72;3.47;;;;;;;15.60;40.61;94079.97;5003229;28;20050;-86
2021/12/12 09:59:44;;;;;;;3.60;2.78;;;;;;;15.58;40.80;94071.56;4988343;28;20046;-84
2021/12/12 10:02:24;;;;;;;4.95;3.50;;;;;;;15.60;40.42;94066.34;4989228;28;20042;-84
2021/12/12 10:05:16;;;;;;;3.88;3.00;;;;;;;15.56;40.74;94072.03;4990298;28;20057;-84
2021/12/12 10:07:58;;;;;;;4.05;3.05;;;;;;;15.56;40.61;94068.56;4988335;28;20375;-84
2021/12/12 10:10:31;;;;;;;3.58;2.85;;;;;;;15.60;40.51;94077.25;4985935;28;20129;-84
2021/12/12 10:13:03;;;;;;;3.75;2.85;;;;;;;15.60;40.75;94074.53;4973341;28;20042;-84
2021/12/12 10:15:28;;;;;;;3.80;2.95;;;;;;;15.62;40.76;94080.25;4971591;28;20045;-83
2021/12/12 10:18:01;;;;;;;3.55;2.55;;;;;;;15.62;40.64;94069.34;4973496;28;20042;-84
2021/12/12 10:20:52;;;;;;;4.75;2.90;;;;;;;15.62;40.75;94078.28;4969936;28;20046;-84
2021/12/12 10:23:36;;;;;;;3.72;3.00;;;;;;;15.59;40.64;94076.50;5010937;28;20148;-84
2021/12/12 10:26:07;;;;;;;3.50;2.83;;;;;;;15.60;40.71;94063.63;4989649;28;20050;-84
2021/12/12 10:28:51;;;;;;;;;;;;;;;15.60;40.64;94060.91;4990520;28;20038;-88
2021/12/12 10:31:21;;;;;;;4.20;3.20;;;;;;;15.60;40.54;94058.94;4990671;28;19933;-84
2021/12/12 10:33:53;;;;;;;3.08;2.38;;;;;;;15.61;40.67;94056.97;4986063;28;20412;-84
2021/12/12 10:36:20;;;;;;;4.53;2.90;;;;;;;15.60;40.38;94058.19;4971230;28;20074;-86
2021/12/12 10:39:01;;;;;;;3.10;2.40;;;;;;;15.60;40.43;94055.47;5005407;28;20046;-84
2021/12/12 10:41:36;;;;;;;3.55;2.47;;;;;;;15.62;40.20;94066.63;5001019;28;20744;-85
2021/12/12 10:44:24;;;;;;;4.28;3.20;;;;;;;15.63;40.54;94062.69;5009655;28;20057;-84
2021/12/12 10:46:58;;;;;;;3.95;2.85;;;;;;;15.68;40.48;94062.00;4953983;28;20486;-86
2021/12/12 10:49:35;;;;;;;2.70;2.40;;;;;;;15.61;40.57;94065.13;4995043;28;20049;-84
2021/12/12 10:52:05;;;;;;;3.47;2.55;;;;;;;15.62;40.46;94072.84;4973028;28;20042;-84
2021/12/12 10:54:48;;;;;;;4.82;3.40;;;;;;;15.60;40.63;94061.66;4989193;28;20042;-85
2021/12/12 10:57:16;;;;;;;3.65;2.67;;;;;;;15.64;40.57;94061.47;5004948;28;20042;-84
2021/12/12 10:59:51;;;;;;;3.72;2.58;;;;;;;15.63;40.59;94062.69;5004017;28;20497;-85
2021/12/12 11:02:19;;;;;;;4.45;2.72;;;;;;;15.62;40.73;94061.19;4993605;28;20050;-87
2021/12/12 11:04:53;;;;;;;3.78;2.65;;;;;;;15.59;40.51;94065.63;4973191;28;20050;-85
2021/12/12 11:07:30;;;;;;;3.08;2.35;;;;;;;15.65;40.67;94066.44;4972618;28;20239;-84
2021/12/12 11:10:12;;;;;;;3.75;2.60;;;;;;;15.62;40.67;94067.38;4988711;28;20031;-84
2021/12/12 11:12:42;;;;;;;4.47;3.03;;;;;;;15.62;40.42;94078.28;4989332;28;20038;-85
2021/12/12 11:15:12;;;;;;;4.18;3.22;;;;;;;15.63;40.62;94076.31;4963960;28;20035;-84
2021/12/12 11:17:40;;;;;;;3.40;2.40;;;;;;;15.60;40.77;94072.56;4988870;28;20031;-84
2021/12/12 11:20:07;;;;;;;3.05;2.20;;;;;;;15.64;41.07;94078.56;4971290;28;20158;-84
2021/12/12 11:22:40;;;;;;;3.78;2.83;;;;;;;15.62;40.47;94066.63;5004495;28;20046;-84
2021/12/12 11:25:33;;;;;;;3.30;2.47;;;;;;;15.63;40.54;94073.59;4953075;28;20038;-84
2021/12/12 11:28:03;;;;;;;3.47;2.45;;;;;;;15.65;40.45;94069.16;5005129;28;20038;-85
2021/12/12 11:30:45;;;;;;;2.33;2.03;;;;;;;15.64;40.59;94064.19;4991923;28;20064;-84
2021/12/12 11:33:12;;;;;;;2.75;2.20;;;;;;;15.59;40.71;94065.63;4968253;28;20031;-86
2021/12/12 11:35:39;;;;;;;4.03;2.80;;;;;;;15.61;40.70;94062.41;5004942;28;20069;-83
2021/12/12 11:38:21;;;;;;;4.35;3.08;;;;;;;15.64;40.75;94075.84;4955102;28;20449;-84
2021/12/12 11:40:48;;;;;;;3.45;2.28;;;;;;;15.65;40.55;94077.34;4977366;28;20042;-84
2021/12/12 11:43:21;;;;;;;3.45;2.42;;;;;;;15.67;40.66;94077.63;5022973;28;20457;-84
2021/12/12 11:45:57;;;;;;;3.20;2.53;;;;;;;15.64;40.72;94069.63;5008203;28;20123;-88
2021/12/12 11:48:47;;;;;;;2.67;2.28;;;;;;;15.63;40.70;94077.06;4991774;28;20046;-84
2021/12/12 11:51:17;;;;;;;3.13;2.33;;;;;;;15.60;40.42;94072.56;4998825;28;20057;-84
2021/12/12 11:53:50;;;;;;;2.67;2.20;;;;;;;15.59;40.54;94078.50;4988516;28;20038;-84
2021/12/12 11:56:45;;;;;;;3.58;2.40;;;;;;;15.61;40.47;94074.06;4988267;28;20046;-84
2021/12/12 11:59:34;;;;;;;3.45;2.30;;;;;;;15.61;40.67;94078.75;4987088;28;20096;-84
2021/12/12 12:02:18;;;;;;;2.90;2.25;;;;;;;15.58;40.76;94074.28;4987688;28;20509;-84
2021/12/12 12:05:09;;;;;;;3.05;2.30;;;;;;;15.61;40.42;94071.34;4989688;28;20383;-85
2021/12/12 12:07:45;;;;;;;2.33;1.90;;;;;;;15.61;40.43;94074.06;5020261;28;20382;-83
2021/12/12 12:10:20;;;;;;;3.10;2.55;;;;;;;15.63;40.57;94087.22;4971998;28;20066;-84
2021/12/12 12:13:08;;;;;;;2.83;2.03;;;;;;;15.61;40.37;94076.03;4972308;28;20048;-84